createdAt,value
2022-10-03T00:00:14.824Z,1021.59
2022-10-03T00:01:15.456Z,1021.59
2022-10-03T00:02:16.062Z,1021.58
2022-10-03T00:03:16.760Z,1021.49
2022-10-03T00:04:17.389Z,1021.55
2022-10-03T00:05:17.985Z,1021.59
2022-10-03T00:06:18.582Z,1021.52
2022-10-03T00:07:19.181Z,1021.60
2022-10-03T00:08:19.842Z,1021.52
2022-10-03T00:09:20.438Z,1021.48
2022-10-03T00:10:21.035Z,1021.50
2022-10-03T00:11:21.635Z,1021.50
2022-10-03T00:12:22.230Z,1021.52
2022-10-03T00:13:22.830Z,1021.53
2022-10-03T00:14:23.430Z,1021.46
2022-10-03T00:15:24.018Z,1021.52
2022-10-03T00:16:24.651Z,1021.55
2022-10-03T00:17:25.275Z,1021.55
2022-10-03T00:18:25.866Z,1021.57
2022-10-03T00:19:26.470Z,1021.61
2022-10-03T00:20:27.067Z,1021.54
2022-10-03T00:21:27.664Z,1021.48
2022-10-03T00:22:28.263Z,1021.49
2022-10-03T00:23:28.937Z,1021.52
2022-10-03T00:24:29.500Z,1021.44
2022-10-03T00:25:30.093Z,1021.44
2022-10-03T00:26:30.835Z,1021.46
2022-10-03T00:27:31.327Z,1021.46
2022-10-03T00:28:31.942Z,1021.44
2022-10-03T00:29:32.530Z,1021.58
2022-10-03T00:30:33.121Z,1021.44
2022-10-03T00:31:33.763Z,1021.44
2022-10-03T00:32:34.402Z,1021.46
2022-10-03T00:33:35.839Z,1021.44
2022-10-03T00:34:36.439Z,1021.40
2022-10-03T00:35:37.028Z,1021.42
2022-10-03T00:36:37.670Z,1021.42
2022-10-03T00:37:38.257Z,1021.36
2022-10-03T00:38:39.699Z,1021.39
2022-10-03T00:39:40.457Z,1021.38
2022-10-03T00:40:41.053Z,1021.36
2022-10-03T00:41:42.038Z,1021.38
2022-10-03T00:42:43.651Z,1021.30
2022-10-03T00:43:44.343Z,1021.37
2022-10-03T00:44:44.943Z,1021.41
2022-10-03T00:45:45.544Z,1021.37
2022-10-03T00:46:46.176Z,1021.36
2022-10-03T00:47:46.788Z,1021.28
2022-10-03T00:48:47.383Z,1021.40
2022-10-03T00:49:48.029Z,1021.21
2022-10-03T00:50:48.625Z,1021.24
2022-10-03T00:51:49.212Z,1021.26
2022-10-03T00:52:49.803Z,1021.21
2022-10-03T00:53:50.396Z,1021.21
2022-10-03T00:54:50.999Z,1021.30
2022-10-03T00:55:51.583Z,1021.30
2022-10-03T00:56:52.175Z,1021.24
2022-10-03T00:57:52.768Z,1021.28
2022-10-03T00:58:53.358Z,1021.28
2022-10-03T00:59:53.951Z,1021.26
2022-10-03T01:00:55.404Z,1021.26
2022-10-03T01:01:56.058Z,1021.31
2022-10-03T01:02:56.658Z,1021.20
2022-10-03T01:03:57.250Z,1021.34
2022-10-03T01:04:57.843Z,1021.31
2022-10-03T01:05:58.433Z,1021.34
2022-10-03T01:06:59.023Z,1021.37
2022-10-03T01:07:59.631Z,1021.40
2022-10-03T01:09:00.219Z,1021.37
2022-10-03T01:10:00.815Z,1021.37
2022-10-03T01:11:01.411Z,1021.40
2022-10-03T01:12:02.010Z,1021.42
2022-10-03T01:13:02.629Z,1021.41
2022-10-03T01:14:03.260Z,1021.41
2022-10-03T01:15:03.863Z,1021.37
2022-10-03T01:16:04.533Z,1021.41
2022-10-03T01:17:05.125Z,1021.32
2022-10-03T01:18:05.707Z,1021.27
2022-10-03T01:19:06.296Z,1021.33
2022-10-03T01:20:06.906Z,1021.33
2022-10-03T01:21:07.563Z,1021.33
2022-10-03T01:22:08.161Z,1021.35
2022-10-03T01:23:08.760Z,1021.31
2022-10-03T01:24:09.360Z,1021.33
2022-10-03T01:25:09.959Z,1021.41
2022-10-03T01:26:10.555Z,1021.36
2022-10-03T01:27:11.151Z,1021.37
2022-10-03T01:28:11.777Z,1021.44
2022-10-03T01:29:12.369Z,1021.37
2022-10-03T01:30:12.959Z,1021.42
2022-10-03T01:31:13.577Z,1021.52
2022-10-03T01:32:14.185Z,1021.41
2022-10-03T01:33:14.782Z,1021.41
2022-10-03T01:34:15.366Z,1021.42
2022-10-03T01:35:15.972Z,1021.46
2022-10-03T01:47:35.513Z,1021.39
2022-10-03T01:48:36.257Z,1021.45
2022-10-03T01:49:36.911Z,1021.45
2022-10-03T01:50:37.509Z,1021.45
2022-10-03T01:51:38.495Z,1021.47
2022-10-03T01:52:39.251Z,1021.45
2022-10-03T01:53:39.853Z,1021.40
2022-10-03T01:54:40.501Z,1021.34
2022-10-03T01:55:41.095Z,1021.34
2022-10-03T01:56:41.693Z,1021.33
2022-10-03T01:57:42.289Z,1021.26
2022-10-03T01:58:42.885Z,1021.35
2022-10-03T01:59:43.483Z,1021.28
2022-10-03T02:00:44.150Z,1021.34
2022-10-03T02:01:44.793Z,1021.28
2022-10-03T02:02:45.403Z,1021.28
2022-10-03T02:03:45.998Z,1021.33
2022-10-03T02:04:46.597Z,1021.24
2022-10-03T02:05:48.044Z,1021.33
2022-10-03T02:06:48.642Z,1021.30
2022-10-03T02:07:49.242Z,1021.26
2022-10-03T02:08:49.839Z,1021.25
2022-10-03T02:09:50.437Z,1021.25
2022-10-03T02:10:51.034Z,1021.25
2022-10-03T02:11:51.636Z,1021.30
2022-10-03T02:12:52.241Z,1021.29
2022-10-03T02:13:52.839Z,1021.30
2022-10-03T02:14:53.436Z,1021.30
2022-10-03T02:33:30.005Z,1021.27
2022-10-03T02:34:30.605Z,1021.23
2022-10-03T02:35:31.206Z,1021.29
2022-10-03T02:36:31.807Z,1021.18
2022-10-03T02:37:32.409Z,1021.26
2022-10-03T02:38:33.008Z,1021.22
2022-10-03T02:39:33.609Z,1021.22
2022-10-03T02:40:34.207Z,1021.21
2022-10-03T02:41:34.807Z,1021.23
2022-10-03T02:42:35.405Z,1021.16
2022-10-03T02:43:36.010Z,1021.12
2022-10-03T02:44:36.607Z,1021.08
2022-10-03T02:45:37.234Z,1021.12
2022-10-03T02:46:37.848Z,1021.12
2022-10-03T02:47:38.445Z,1021.13
2022-10-03T02:48:39.097Z,1021.19
2022-10-03T02:49:39.692Z,1021.12
2022-10-03T02:50:40.304Z,1021.12
2022-10-03T02:51:41.425Z,1021.12
2022-10-03T02:52:42.285Z,1021.11
2022-10-03T02:53:42.929Z,1021.07
2022-10-03T02:54:43.532Z,1021.06
2022-10-03T02:55:44.127Z,1021.05
2022-10-03T02:56:44.873Z,1021.02
2022-10-03T02:57:45.468Z,1021.02
2022-10-03T02:58:46.066Z,1021.00
2022-10-03T02:59:46.664Z,1021.02
2022-10-03T03:00:47.339Z,1020.95
2022-10-03T03:01:47.967Z,1020.99
2022-10-03T03:02:48.585Z,1020.98
2022-10-03T03:03:49.273Z,1021.02
2022-10-03T03:04:49.847Z,1021.05
2022-10-03T03:05:50.445Z,1020.93
2022-10-03T03:06:51.045Z,1020.91
2022-10-03T03:07:51.694Z,1020.83
2022-10-03T03:08:52.444Z,1020.93
2022-10-03T03:09:53.042Z,1020.91
2022-10-03T03:10:53.643Z,1020.95
2022-10-03T03:11:54.238Z,1020.95
2022-10-03T03:12:54.840Z,1020.92
2022-10-03T03:13:55.440Z,1020.91
2022-10-03T03:14:56.041Z,1020.93
2022-10-03T03:15:56.678Z,1020.83
2022-10-03T03:16:57.271Z,1020.87
2022-10-03T03:17:57.867Z,1020.88
2022-10-03T03:18:58.465Z,1020.88
2022-10-03T03:19:59.061Z,1020.82
2022-10-03T03:20:59.661Z,1020.84
2022-10-03T03:22:00.258Z,1020.85
2022-10-03T03:23:00.855Z,1020.80
2022-10-03T03:24:01.450Z,1020.85
2022-10-03T03:25:02.048Z,1020.91
2022-10-03T03:26:02.645Z,1020.86
2022-10-03T03:27:03.241Z,1020.84
2022-10-03T03:28:03.862Z,1020.90
2022-10-03T03:29:04.470Z,1020.82
2022-10-03T03:30:05.066Z,1020.83
2022-10-03T03:31:05.790Z,1020.86
2022-10-03T03:32:06.455Z,1020.85
2022-10-03T03:33:07.037Z,1020.83
2022-10-03T03:34:07.667Z,1020.90
2022-10-03T03:35:08.253Z,1020.85
2022-10-03T03:36:08.852Z,1020.80
2022-10-03T03:37:10.251Z,1020.86
2022-10-03T03:38:10.850Z,1020.76
2022-10-03T03:39:11.451Z,1020.76
2022-10-03T03:40:12.050Z,1020.82
2022-10-03T03:41:12.649Z,1020.70
2022-10-03T03:42:13.247Z,1020.70
2022-10-03T03:43:13.846Z,1020.78
2022-10-03T03:44:14.444Z,1020.68
2022-10-03T03:45:15.044Z,1020.70
2022-10-03T03:46:15.637Z,1020.65
2022-10-03T03:47:16.241Z,1020.73
2022-10-03T03:48:16.843Z,1020.75
2022-10-03T03:49:17.442Z,1020.75
2022-10-03T03:50:18.042Z,1020.73
2022-10-03T03:51:18.687Z,1020.69
2022-10-03T03:52:19.282Z,1020.74
2022-10-03T03:53:19.877Z,1020.80
2022-10-03T03:54:20.474Z,1020.69
2022-10-03T03:55:21.074Z,1020.73
2022-10-03T03:56:21.716Z,1020.70
2022-10-03T03:57:22.313Z,1020.76
2022-10-03T03:58:22.910Z,1020.74
2022-10-03T03:59:23.558Z,1020.73
2022-10-03T04:00:24.156Z,1020.83
2022-10-03T04:01:24.809Z,1020.73
2022-10-03T04:02:25.506Z,1020.79
2022-10-03T04:03:26.082Z,1020.82
2022-10-03T04:04:26.729Z,1020.74
2022-10-03T04:05:27.325Z,1020.82
2022-10-03T04:06:27.928Z,1020.75
2022-10-03T04:07:28.527Z,1020.75
2022-10-03T04:08:29.194Z,1020.82
2022-10-03T04:09:29.792Z,1020.79
2022-10-03T04:10:30.390Z,1020.77
2022-10-03T04:11:30.989Z,1020.82
2022-10-03T04:12:31.735Z,1020.76
2022-10-03T04:13:32.386Z,1020.88
2022-10-03T04:14:32.986Z,1020.81
2022-10-03T04:15:33.588Z,1020.84
2022-10-03T04:16:34.236Z,1020.81
2022-10-03T04:17:34.852Z,1020.86
2022-10-03T04:18:35.518Z,1020.79
2022-10-03T04:19:36.117Z,1020.78
2022-10-03T04:20:36.715Z,1020.92
2022-10-03T04:21:37.615Z,1020.86
2022-10-03T04:22:38.399Z,1020.85
2022-10-03T04:23:38.996Z,1020.87
2022-10-03T04:24:39.591Z,1020.88
2022-10-03T04:25:40.194Z,1020.88
2022-10-03T04:26:40.788Z,1020.88
2022-10-03T04:27:41.387Z,1020.91
2022-10-03T04:28:41.985Z,1020.87
2022-10-03T04:29:42.588Z,1020.90
2022-10-03T04:30:43.182Z,1020.90
2022-10-03T04:31:44.286Z,1020.92
2022-10-03T04:32:45.244Z,1020.95
2022-10-03T04:33:45.843Z,1021.01
2022-10-03T04:34:46.440Z,1020.97
2022-10-03T04:35:47.036Z,1021.01
2022-10-03T04:36:47.644Z,1021.02
2022-10-03T04:37:48.232Z,1021.03
2022-10-03T04:38:48.835Z,1020.99
2022-10-03T04:39:49.430Z,1021.08
2022-10-03T04:40:50.031Z,1021.00
2022-10-03T04:41:50.636Z,1021.05
2022-10-03T04:42:51.234Z,1021.07
2022-10-03T04:43:51.834Z,1021.15
2022-10-03T04:44:52.432Z,1021.08
2022-10-03T04:45:53.094Z,1021.08
2022-10-03T04:46:53.668Z,1021.18
2022-10-03T04:47:54.269Z,1021.15
2022-10-03T04:48:54.868Z,1021.15
2022-10-03T04:49:55.466Z,1021.10
2022-10-03T04:50:56.065Z,1021.18
2022-10-03T04:51:56.665Z,1021.15
2022-10-03T04:52:57.267Z,1021.14
2022-10-03T04:53:57.868Z,1021.13
2022-10-03T04:54:58.469Z,1021.11
2022-10-03T04:55:59.068Z,1021.21
2022-10-03T04:56:59.662Z,1021.06
2022-10-03T04:58:04.714Z,1021.18
2022-10-03T04:59:01.858Z,1021.19
2022-10-03T05:00:02.457Z,1021.13
2022-10-03T05:01:03.086Z,1021.18
2022-10-03T05:02:03.880Z,1021.15
2022-10-03T05:03:04.465Z,1021.11
2022-10-03T05:04:05.104Z,1021.07
2022-10-03T05:05:05.690Z,1021.07
2022-10-03T05:06:06.290Z,1021.08
2022-10-03T05:07:07.038Z,1021.07
2022-10-03T05:08:07.638Z,1021.09
2022-10-03T05:09:08.238Z,1021.02
2022-10-03T05:10:13.358Z,1021.13
2022-10-03T05:11:11.278Z,1021.01
2022-10-03T05:12:12.735Z,1021.08
2022-10-03T05:13:13.329Z,1021.07
2022-10-03T05:14:13.928Z,1021.01
2022-10-03T05:15:15.374Z,1021.04
2022-10-03T05:16:16.013Z,1021.01
2022-10-03T05:17:16.618Z,1021.02
2022-10-03T05:18:17.216Z,1021.00
2022-10-03T05:19:17.812Z,1021.00
2022-10-03T05:20:18.500Z,1020.99
2022-10-03T05:21:19.070Z,1020.94
2022-10-03T05:22:19.663Z,1021.00
2022-10-03T05:23:20.262Z,1020.99
2022-10-03T05:24:20.862Z,1020.96
2022-10-03T05:25:21.461Z,1020.91
2022-10-03T05:26:45.578Z,1021.04
2022-10-03T05:27:24.515Z,1021.02
2022-10-03T05:28:25.140Z,1021.08
2022-10-03T05:29:25.784Z,1021.09
2022-10-03T05:30:26.384Z,1021.06
2022-10-03T05:31:27.166Z,1021.04
2022-10-03T05:32:27.760Z,1021.03
2022-10-03T05:33:28.411Z,1021.04
2022-10-03T05:34:29.011Z,1021.05
2022-10-03T05:35:30.459Z,1020.98
2022-10-03T05:36:31.062Z,1021.03
2022-10-03T05:37:31.663Z,1020.97
2022-10-03T05:38:32.327Z,1020.98
2022-10-03T05:39:33.074Z,1020.99
2022-10-03T05:40:33.674Z,1020.97
2022-10-03T05:41:34.274Z,1021.01
2022-10-03T05:42:34.874Z,1021.03
2022-10-03T05:43:35.472Z,1020.98
2022-10-03T05:44:36.129Z,1020.98
2022-10-03T05:45:36.738Z,1020.96
2022-10-03T05:46:37.382Z,1020.99
2022-10-03T05:47:37.978Z,1020.99
2022-10-03T05:48:39.376Z,1021.03
2022-10-03T05:49:39.991Z,1021.02
2022-10-03T05:50:40.661Z,1021.05
2022-10-03T05:51:41.473Z,1021.02
2022-10-03T05:52:42.477Z,1021.07
2022-10-03T05:53:43.076Z,1021.06
2022-10-03T05:54:43.673Z,1021.10
2022-10-03T05:55:44.270Z,1021.08
2022-10-03T05:56:44.869Z,1021.03
2022-10-03T05:57:45.466Z,1021.07
2022-10-03T05:58:46.063Z,1021.13
2022-10-03T05:59:46.665Z,1021.12
2022-10-03T06:00:47.267Z,1021.12
2022-10-03T06:01:47.988Z,1021.13
2022-10-03T06:02:48.690Z,1021.10
2022-10-03T06:03:49.307Z,1021.08
2022-10-03T06:04:49.906Z,1021.13
2022-10-03T06:05:50.507Z,1021.17
2022-10-03T06:06:51.106Z,1021.09
2022-10-03T06:07:51.774Z,1021.14
2022-10-03T06:08:52.375Z,1021.11
2022-10-03T06:09:53.038Z,1021.10
2022-10-03T06:10:53.704Z,1021.14
2022-10-03T06:11:54.303Z,1021.16
2022-10-03T06:12:54.904Z,1021.04
2022-10-03T06:13:55.499Z,1021.10
2022-10-03T06:14:56.100Z,1021.13
2022-10-03T06:15:56.725Z,1021.04
2022-10-03T06:16:57.341Z,1021.15
2022-10-03T06:17:57.942Z,1021.08
2022-10-03T06:18:58.537Z,1021.07
2022-10-03T06:19:59.135Z,1021.09
2022-10-03T06:20:59.730Z,1021.09
2022-10-03T06:22:00.327Z,1021.16
2022-10-03T06:23:05.615Z,1021.10
2022-10-03T06:24:02.514Z,1021.09
2022-10-03T06:25:03.115Z,1021.20
2022-10-03T06:26:03.708Z,1021.20
2022-10-03T06:27:04.312Z,1021.26
2022-10-03T06:28:04.947Z,1021.28
2022-10-03T06:29:05.547Z,1021.26
2022-10-03T06:30:06.174Z,1021.27
2022-10-03T06:31:06.810Z,1021.29
2022-10-03T06:32:07.415Z,1021.27
2022-10-03T06:33:08.069Z,1021.28
2022-10-03T06:34:08.663Z,1021.30
2022-10-03T06:35:09.263Z,1021.28
2022-10-03T06:36:09.867Z,1021.27
2022-10-03T06:37:11.315Z,1021.30
2022-10-03T06:38:11.915Z,1021.30
2022-10-03T06:39:12.517Z,1021.31
2022-10-03T06:40:13.160Z,1021.28
2022-10-03T06:41:13.811Z,1021.28
2022-10-03T06:42:14.411Z,1021.33
2022-10-03T06:43:15.009Z,1021.34
2022-10-03T06:44:15.608Z,1021.35
2022-10-03T06:45:16.210Z,1021.28
2022-10-03T06:46:16.838Z,1021.38
2022-10-03T06:47:17.478Z,1021.38
2022-10-03T06:48:18.073Z,1021.37
2022-10-03T06:49:18.729Z,1021.38
2022-10-03T06:50:19.322Z,1021.40
2022-10-03T06:51:19.951Z,1021.42
2022-10-03T06:52:20.626Z,1021.41
2022-10-03T06:53:21.224Z,1021.36
2022-10-03T06:54:21.822Z,1021.43
2022-10-03T06:55:22.421Z,1021.38
2022-10-03T06:56:23.021Z,1021.37
2022-10-03T06:57:23.619Z,1021.40
2022-10-03T06:58:24.214Z,1021.47
2022-10-03T06:59:24.817Z,1021.46
2022-10-03T07:00:25.461Z,1021.40
2022-10-03T07:01:26.136Z,1021.45
2022-10-03T07:02:26.799Z,1021.47
2022-10-03T07:03:27.404Z,1021.52
2022-10-03T07:04:28.001Z,1021.63
2022-10-03T07:05:28.601Z,1021.60
2022-10-03T07:06:29.282Z,1021.56
2022-10-03T07:07:29.859Z,1021.61
2022-10-03T07:08:30.458Z,1021.63
2022-10-03T07:09:31.057Z,1021.65
2022-10-03T07:10:31.658Z,1021.65
2022-10-03T07:11:32.256Z,1021.60
2022-10-03T07:12:32.857Z,1021.62
2022-10-03T07:13:33.456Z,1021.66
2022-10-03T07:14:34.058Z,1021.65
2022-10-03T07:16:02.328Z,1021.66
2022-10-03T07:16:36.311Z,1021.69
2022-10-03T07:17:36.920Z,1021.62
2022-10-03T07:18:37.521Z,1021.65
2022-10-03T07:19:38.118Z,1021.69
2022-10-03T07:20:38.712Z,1021.70
2022-10-03T07:21:39.558Z,1021.72
2022-10-03T07:22:40.272Z,1021.72
2022-10-03T07:23:40.869Z,1021.75
2022-10-03T07:24:41.466Z,1021.79
2022-10-03T07:25:42.064Z,1021.80
2022-10-03T07:26:42.663Z,1021.81
2022-10-03T07:27:47.400Z,1021.83
2022-10-03T07:28:44.851Z,1021.81
2022-10-03T07:29:46.247Z,1021.80
2022-10-03T07:30:46.882Z,1021.85
2022-10-03T07:31:47.457Z,1021.83
2022-10-03T07:32:48.056Z,1021.90
2022-10-03T07:33:48.660Z,1021.83
2022-10-03T07:34:49.253Z,1021.85
2022-10-03T07:35:49.849Z,1021.88
2022-10-03T07:36:50.520Z,1021.84
2022-10-03T07:37:51.116Z,1021.91
2022-10-03T07:38:51.722Z,1021.97
2022-10-03T07:39:52.319Z,1021.93
2022-10-03T07:40:52.914Z,1021.96
2022-10-03T07:41:53.514Z,1021.87
2022-10-03T07:42:54.114Z,1021.94
2022-10-03T07:43:55.574Z,1021.94
2022-10-03T07:44:57.014Z,1021.96
2022-10-03T07:45:57.661Z,1021.94
2022-10-03T07:46:58.250Z,1021.89
2022-10-03T07:47:58.850Z,1021.83
2022-10-03T07:48:59.453Z,1021.91
2022-10-03T07:50:00.062Z,1021.90
2022-10-03T07:51:01.507Z,1021.95
2022-10-03T07:52:02.104Z,1021.91
2022-10-03T07:53:02.749Z,1021.89
2022-10-03T07:54:03.346Z,1021.92
2022-10-03T07:55:03.943Z,1021.96
2022-10-03T07:56:09.212Z,1021.85
2022-10-03T07:57:06.296Z,1021.97
2022-10-03T07:58:06.929Z,1022.02
2022-10-03T07:59:07.529Z,1022.04
2022-10-03T08:00:08.134Z,1022.09
2022-10-03T08:01:08.729Z,1022.07
2022-10-03T08:02:09.324Z,1022.07
2022-10-03T08:03:10.065Z,1022.07
2022-10-03T08:04:10.737Z,1022.09
2022-10-03T08:05:11.334Z,1022.12
2022-10-03T08:06:11.931Z,1022.09
2022-10-03T08:07:12.529Z,1022.12
2022-10-03T08:08:13.126Z,1022.11
2022-10-03T08:09:13.734Z,1022.00
2022-10-03T08:10:14.333Z,1022.04
2022-10-03T08:11:14.936Z,1022.06
2022-10-03T08:12:15.530Z,1022.09
2022-10-03T08:13:16.131Z,1022.12
2022-10-03T08:14:16.762Z,1022.15
2022-10-03T08:15:17.364Z,1022.12
2022-10-03T08:16:18.831Z,1022.16
2022-10-03T08:17:19.414Z,1022.08
2022-10-03T08:18:20.021Z,1022.02
2022-10-03T08:19:20.615Z,1022.19
2022-10-03T08:20:21.245Z,1022.14
2022-10-03T08:21:21.867Z,1022.13
2022-10-03T08:22:22.483Z,1022.20
2022-10-03T08:23:23.126Z,1022.21
2022-10-03T08:24:23.728Z,1022.24
2022-10-03T08:25:24.320Z,1022.20
2022-10-03T08:26:24.918Z,1022.20
2022-10-03T08:27:25.523Z,1022.20
2022-10-03T08:28:26.250Z,1022.22
2022-10-03T08:29:26.874Z,1022.22
2022-10-03T08:30:27.475Z,1022.22
2022-10-03T08:31:28.181Z,1022.32
2022-10-03T08:32:28.860Z,1022.30
2022-10-03T08:33:29.462Z,1022.32
2022-10-03T08:34:30.054Z,1022.39
2022-10-03T08:35:30.660Z,1022.32
2022-10-03T08:36:31.250Z,1022.30
2022-10-03T08:37:31.849Z,1022.42
2022-10-03T08:38:32.452Z,1022.39
2022-10-03T08:39:33.049Z,1022.40
2022-10-03T08:40:33.649Z,1022.42
2022-10-03T08:41:34.251Z,1022.48
2022-10-03T08:42:34.851Z,1022.43
2022-10-03T08:43:35.450Z,1022.41
2022-10-03T08:44:36.049Z,1022.37
2022-10-03T08:45:36.650Z,1022.38
2022-10-03T08:46:37.274Z,1022.39
2022-10-03T08:47:37.920Z,1022.42
2022-10-03T08:48:38.520Z,1022.36
2022-10-03T08:49:39.117Z,1022.31
2022-10-03T08:50:39.718Z,1022.39
2022-10-03T08:51:40.617Z,1022.39
2022-10-03T08:52:41.577Z,1022.40
2022-10-03T08:53:42.180Z,1022.44
2022-10-03T08:54:42.779Z,1022.48
2022-10-03T08:55:43.382Z,1022.47
2022-10-03T08:56:43.984Z,1022.41
2022-10-03T08:57:44.631Z,1022.50
2022-10-03T08:58:45.277Z,1022.50
2022-10-03T08:59:46.027Z,1022.62
2022-10-03T09:00:46.675Z,1022.56
2022-10-03T09:01:47.395Z,1022.58
2022-10-03T09:02:54.618Z,1022.56
2022-10-03T09:03:49.680Z,1022.58
2022-10-03T09:04:50.294Z,1022.49
2022-10-03T09:05:50.896Z,1022.65
2022-10-03T09:07:15.927Z,1022.60
2022-10-03T09:07:53.089Z,1022.58
2022-10-03T09:08:53.688Z,1022.60
2022-10-03T09:09:54.287Z,1022.51
2022-10-03T09:10:54.887Z,1022.54
2022-10-03T09:11:55.486Z,1022.60
2022-10-03T09:12:56.087Z,1022.67
2022-10-03T09:13:56.745Z,1022.67
2022-10-03T09:14:57.344Z,1022.59
2022-10-03T09:15:58.000Z,1022.62
2022-10-03T09:16:58.601Z,1022.75
2022-10-03T09:17:59.205Z,1022.78
2022-10-03T09:18:59.865Z,1022.67
2022-10-03T09:20:00.465Z,1022.74
2022-10-03T09:21:01.126Z,1022.80
2022-10-03T09:22:01.727Z,1022.77
2022-10-03T09:23:02.328Z,1022.75
2022-10-03T09:24:03.723Z,1022.72
2022-10-03T09:25:04.321Z,1022.82
2022-10-03T09:26:04.921Z,1022.77
2022-10-03T09:27:05.521Z,1022.87
2022-10-03T09:28:06.164Z,1022.90
2022-10-03T09:29:06.756Z,1022.81
2022-10-03T09:30:07.357Z,1022.85
2022-10-03T09:31:07.991Z,1022.85
2022-10-03T09:32:08.569Z,1022.84
2022-10-03T09:33:09.172Z,1022.88
2022-10-03T09:34:09.834Z,1022.85
2022-10-03T09:35:10.438Z,1022.91
2022-10-03T09:36:11.038Z,1022.86
2022-10-03T09:37:11.640Z,1022.88
2022-10-03T09:38:12.242Z,1022.90
2022-10-03T09:39:12.843Z,1022.97
2022-10-03T09:40:13.443Z,1022.90
2022-10-03T09:41:14.043Z,1022.99
2022-10-03T09:42:14.644Z,1023.00
2022-10-03T09:43:15.242Z,1023.00
2022-10-03T09:44:15.842Z,1023.00
2022-10-03T09:45:16.510Z,1022.94
2022-10-03T09:46:17.142Z,1022.86
2022-10-03T09:47:17.737Z,1022.88
2022-10-03T09:48:18.336Z,1022.84
2022-10-03T09:49:18.935Z,1022.90
2022-10-03T09:50:19.599Z,1022.89
2022-10-03T09:51:20.260Z,1022.84
2022-10-03T09:52:20.858Z,1022.84
2022-10-03T09:53:21.456Z,1022.91
2022-10-03T09:54:22.056Z,1022.83
2022-10-03T09:55:22.654Z,1022.92
2022-10-03T09:56:23.256Z,1022.88
2022-10-03T09:57:23.917Z,1022.84
2022-10-03T09:58:24.517Z,1022.81
2022-10-03T09:59:25.114Z,1022.84
2022-10-03T10:00:25.717Z,1022.83
2022-10-03T10:01:26.455Z,1022.89
2022-10-03T10:02:27.921Z,1022.80
2022-10-03T10:03:28.601Z,1022.84
2022-10-03T10:04:53.037Z,1022.80
2022-10-03T10:05:30.953Z,1022.83
2022-10-03T10:06:32.402Z,1022.68
2022-10-03T10:07:33.801Z,1022.80
2022-10-03T10:08:34.401Z,1022.78
2022-10-03T10:09:35.001Z,1022.88
2022-10-03T10:10:35.602Z,1022.86
2022-10-03T10:11:36.202Z,1022.75
2022-10-03T10:12:36.803Z,1022.88
2022-10-03T10:14:03.245Z,1022.88
2022-10-03T10:14:38.991Z,1022.90
2022-10-03T10:15:39.594Z,1022.88
2022-10-03T10:16:43.453Z,1022.81
2022-10-03T10:17:41.786Z,1022.84
2022-10-03T10:18:42.383Z,1022.79
2022-10-03T10:19:42.984Z,1022.76
2022-10-03T10:20:43.579Z,1022.85
2022-10-03T10:21:44.177Z,1022.88
2022-10-03T10:22:44.777Z,1022.89
2022-10-03T10:23:45.381Z,1022.91
2022-10-03T10:24:45.979Z,1022.91
2022-10-03T10:25:46.578Z,1022.89
2022-10-03T10:26:47.320Z,1022.89
2022-10-03T10:27:48.152Z,1022.92
2022-10-03T10:28:48.786Z,1022.94
2022-10-03T10:29:49.381Z,1022.90
2022-10-03T10:30:49.982Z,1022.94
2022-10-03T10:31:50.614Z,1022.92
2022-10-03T10:32:51.232Z,1022.91
2022-10-03T10:33:51.897Z,1022.90
2022-10-03T10:34:52.501Z,1022.86
2022-10-03T10:35:53.099Z,1022.81
2022-10-03T10:36:53.701Z,1022.82
2022-10-03T10:37:54.300Z,1022.77
2022-10-03T10:38:54.984Z,1022.80
2022-10-03T10:39:55.565Z,1022.80
2022-10-03T10:40:56.160Z,1022.78
2022-10-03T10:41:56.764Z,1022.83
2022-10-03T10:42:57.366Z,1022.73
2022-10-03T10:43:57.963Z,1022.78
2022-10-03T10:44:58.566Z,1022.81
2022-10-03T10:45:59.234Z,1022.74
2022-10-03T10:46:59.858Z,1022.74
2022-10-03T10:48:00.444Z,1022.73
2022-10-03T10:49:03.854Z,1022.78
2022-10-03T10:50:02.639Z,1022.71
2022-10-03T10:51:03.235Z,1022.67
2022-10-03T10:52:03.835Z,1022.72
2022-10-03T10:53:04.433Z,1022.67
2022-10-03T10:54:05.034Z,1022.72
2022-10-03T10:55:05.631Z,1022.72
2022-10-03T10:56:06.228Z,1022.63
2022-10-03T10:57:06.830Z,1022.65
2022-10-03T10:58:07.425Z,1022.67
2022-10-03T10:59:08.024Z,1022.67
2022-10-03T11:00:08.624Z,1022.64
2022-10-03T11:01:09.299Z,1022.61
2022-10-03T11:02:09.891Z,1022.57
2022-10-03T11:03:10.489Z,1022.65
2022-10-03T11:04:11.108Z,1022.64
2022-10-03T11:05:12.551Z,1022.65
2022-10-03T11:06:13.147Z,1022.66
2022-10-03T11:07:13.898Z,1022.65
2022-10-03T11:08:14.648Z,1022.68
2022-10-03T11:09:16.102Z,1022.66
2022-10-03T11:10:16.701Z,1022.71
2022-10-03T11:11:17.303Z,1022.80
2022-10-03T11:12:17.909Z,1022.79
2022-10-03T11:13:18.620Z,1022.79
2022-10-03T11:14:19.271Z,1022.81
2022-10-03T11:15:19.871Z,1022.81
2022-10-03T11:16:20.521Z,1022.73
2022-10-03T11:17:21.110Z,1022.83
2022-10-03T11:18:21.710Z,1022.76
2022-10-03T11:19:22.310Z,1022.74
2022-10-03T11:20:22.910Z,1022.74
2022-10-03T11:21:23.511Z,1022.73
2022-10-03T11:22:24.113Z,1022.72
2022-10-03T11:23:24.709Z,1022.79
2022-10-03T11:24:25.309Z,1022.74
2022-10-03T11:25:25.909Z,1022.68
2022-10-03T11:26:26.509Z,1022.77
2022-10-03T11:27:27.103Z,1022.75
2022-10-03T11:28:27.770Z,1022.74
2022-10-03T11:29:28.412Z,1022.71
2022-10-03T11:30:29.913Z,1022.75
2022-10-03T11:31:30.585Z,1022.70
2022-10-03T11:32:31.196Z,1022.78
2022-10-03T11:33:32.642Z,1022.70
2022-10-03T11:34:33.340Z,1022.75
2022-10-03T11:35:33.937Z,1022.71
2022-10-03T11:36:34.539Z,1022.74
2022-10-03T11:37:35.133Z,1022.79
2022-10-03T11:38:35.733Z,1022.77
2022-10-03T11:39:36.343Z,1022.83
2022-10-03T11:40:37.802Z,1022.82
2022-10-03T11:41:38.403Z,1022.87
2022-10-03T11:42:39.003Z,1022.84
2022-10-03T11:43:39.603Z,1022.88
2022-10-03T11:44:40.205Z,1022.88
2022-10-03T11:45:40.857Z,1022.89
2022-10-03T11:46:41.739Z,1022.82
2022-10-03T11:47:42.524Z,1022.91
2022-10-03T11:48:43.168Z,1022.91
2022-10-03T11:49:43.768Z,1022.95
2022-10-03T11:50:44.433Z,1023.01
2022-10-03T11:51:45.033Z,1022.94
2022-10-03T11:52:45.634Z,1022.95
2022-10-03T11:53:46.230Z,1022.87
2022-10-03T11:54:46.833Z,1022.93
2022-10-03T11:55:47.430Z,1022.90
2022-10-03T11:56:48.828Z,1022.88
2022-10-03T11:57:49.427Z,1022.85
2022-10-03T11:58:50.029Z,1022.87
2022-10-03T11:59:50.624Z,1022.82
2022-10-03T12:00:51.221Z,1022.80
2022-10-03T12:01:51.965Z,1022.75
2022-10-03T12:02:52.730Z,1022.78
2022-10-03T12:03:53.362Z,1022.75
2022-10-03T12:04:53.960Z,1022.74
2022-10-03T12:05:54.559Z,1022.74
2022-10-03T12:06:55.161Z,1022.80
2022-10-03T12:07:58.409Z,1022.73
2022-10-03T12:08:57.359Z,1022.71
2022-10-03T12:09:57.959Z,1022.77
2022-10-03T12:10:58.614Z,1022.74
2022-10-03T12:11:59.215Z,1022.74
2022-10-03T12:12:59.815Z,1022.78
2022-10-03T12:14:00.413Z,1022.76
2022-10-03T12:15:01.016Z,1022.73
2022-10-03T12:16:01.667Z,1022.77
2022-10-03T12:17:02.263Z,1022.80
2022-10-03T12:18:02.873Z,1022.83
2022-10-03T12:19:03.465Z,1022.80
2022-10-03T12:20:04.065Z,1022.77
2022-10-03T12:21:05.573Z,1022.75
2022-10-03T12:22:06.174Z,1022.77
2022-10-03T12:23:06.780Z,1022.73
2022-10-03T12:24:07.389Z,1022.73
2022-10-03T12:25:07.990Z,1022.74
2022-10-03T12:26:08.589Z,1022.70
2022-10-03T12:27:09.189Z,1022.62
2022-10-03T12:28:09.818Z,1022.70
2022-10-03T12:29:10.403Z,1022.68
2022-10-03T12:30:11.029Z,1022.70
2022-10-03T12:31:13.969Z,1022.59
2022-10-03T12:32:13.225Z,1022.72
2022-10-03T12:33:13.818Z,1022.73
2022-10-03T12:34:14.466Z,1022.75
2022-10-03T12:35:15.066Z,1022.64
2022-10-03T12:36:15.817Z,1022.69
2022-10-03T12:37:16.514Z,1022.70
2022-10-03T12:38:17.093Z,1022.72
2022-10-03T12:39:17.691Z,1022.73
2022-10-03T12:40:18.433Z,1022.72
2022-10-03T12:41:18.991Z,1022.70
2022-10-03T12:42:19.591Z,1022.77